Sentinel Butte, ND (58654)

9:16 AM MST on January 31, 2015 (GMT -0700)
Old Hwy 10 | Change Station
CLOSE
Current Station
Personal Weather Station
Location: Medora, ND
Elevation: 2523 ft
Nearby Weather Stations

Elev 2523 ft 46.92 °N, 103.65 °W | Updated 10 seconds ago

Fog
Fog
20.7 °F
Feels Like 14 °F
N
4.9
Wind Variable Wind from East
Gusts 13.0 mph

Today
High -- | Low -- °F
--% Chance of Precip.
Yesterday
High -- | Low -- °F
Precip. -- in
7:20 AM 4:56 PM
Waxing Gibbous, 90% visible
Pressure 30.09 in
Visibility 0.8 miles
Clouds Overcast 300 ft
Windchill 14 °F
Dew Point 19 °F
Humidity 92%
Rainfall 0.00 in
Snow Depth Not available.
UV 0.0 out of 12
Pollen .10 out of 12
Air Quality Not available.
Flu Activity Not available.
METAR K20U 311515Z AUTO 10012G19KT 3/4SM BR OVC003 M07/M07 A3009 RMK AO2

More Conditions Fewer Conditions

Pressure 30.09 in
Visibility 0.8 miles
Clouds Overcast 300 ft
Windchill 14 °F
Dew Point 19 °F
Humidity 92%
Rainfall 0.00 in
Snow Depth Not available.
UV 0.0 out of 12
Pollen .10 out of 12
Air Quality Not available.
Flu Activity Not available.
METAR K20U 311515Z AUTO 10012G19KT 3/4SM BR OVC003 M07/M07 A3009 RMK AO2

More Conditions Fewer Conditions

10-Day Weather Forecast

Almanac

Astronomy

Jan. 31, 2015 Rise Set
Actual Time
Civil Twilight
Nautical Twilight
Astronomical Twilight
Moon
Length of Visible Light
Length of Day
Tomorrow will be .
, % of the Moon is Illuminated

Today's Extremes

State Highs State Lows

Community

WunderPhotos

Upload Photos

1,792,098 photos uploaded!

WunderBlogs® & News

Nearby

Air Quality

  Air Quality AQ Index Pollutant
Not available.

Snow Depth

Station Depth Elevation

Earthquake Activity

City Distance Mag. Time & Date
Minimum magnitude displayed is 2.5.

Coastal Water Temperatures

Place Temperature

Nearby Weather Stations